Time;durP1;ratioP1;P1;durP2;ratioP2;P2;SDS_P1;SDS_P2;PMS_P1;PMS_P2;Temp;Humidity;BMP_temperature;BMP_pressure;BME280_temperature;BME280_humidity;BME280_pressure;Samples;Min_cycle;Max_cycle;Signal;HPM_P1;HPM_P2
2021/04/26 00:00:05;;;;;;;14.68;2.50;;;4.50;77.70;;;;;;5050621;28;20503;-60
2021/04/26 00:02:31;;;;;;;6.75;1.77;;;4.50;77.40;;;;;;5054342;28;20111;-60
2021/04/26 00:04:56;;;;;;;8.75;1.98;;;4.50;77.70;;;;;;5046648;28;20142;-60
2021/04/26 00:07:22;;;;;;;8.82;2.00;;;4.40;77.50;;;;;;5050413;28;20170;-60
2021/04/26 00:09:48;;;;;;;11.10;1.95;;;4.40;78.00;;;;;;5049905;28;20024;-60
2021/04/26 00:12:13;;;;;;;12.45;2.50;;;4.30;78.10;;;;;;5049662;28;20017;-60
2021/04/26 00:14:39;;;;;;;11.43;2.22;;;4.30;78.10;;;;;;5049480;28;20146;-60
2021/04/26 00:17:04;;;;;;;9.93;2.15;;;4.40;78.20;;;;;;5048424;28;20021;-60
2021/04/26 00:19:30;;;;;;;11.05;2.65;;;4.30;78.20;;;;;;5049429;28;20108;-60
2021/04/26 00:21:55;;;;;;;8.95;1.85;;;4.30;78.50;;;;;;5049703;28;20070;-60
2021/04/26 00:24:21;;;;;;;10.15;1.98;;;4.20;78.50;;;;;;5049756;28;20036;-60
2021/04/26 00:26:47;;;;;;;9.27;2.33;;;4.20;78.40;;;;;;5049314;28;20032;-60
2021/04/26 00:29:12;;;;;;;9.55;2.33;;;4.20;78.50;;;;;;5050045;28;20021;-60
2021/04/26 00:31:38;;;;;;;10.00;2.10;;;4.20;78.70;;;;;;5048998;28;20033;-60
2021/04/26 00:34:04;;;;;;;13.13;2.42;;;4.20;79.00;;;;;;5050080;28;20021;-60
2021/04/26 00:36:29;;;;;;;8.20;2.20;;;4.20;79.00;;;;;;5049233;28;20049;-60
2021/04/26 00:38:55;;;;;;;10.90;2.40;;;4.10;79.10;;;;;;5049379;28;20514;-60
2021/04/26 00:41:20;;;;;;;10.88;2.50;;;4.10;79.30;;;;;;5049598;28;20339;-60
2021/04/26 00:43:46;;;;;;;18.60;3.13;;;4.10;79.10;;;;;;5047495;28;20032;-60
2021/04/26 00:46:13;;;;;;;10.88;2.05;;;4.10;79.20;;;;;;5048143;28;20036;-60
2021/04/26 00:48:38;;;;;;;6.05;2.47;;;4.10;79.30;;;;;;5049207;28;20028;-60
2021/04/26 00:51:09;;;;;;;13.57;2.38;;;4.10;79.50;;;;;;5049516;28;20026;-60
2021/04/26 00:53:35;;;;;;;8.88;2.25;;;4.00;79.30;;;;;;5048919;28;20025;-60
2021/04/26 00:56:01;;;;;;;9.90;2.60;;;4.10;79.30;;;;;;5049751;28;20415;-60
2021/04/26 00:58:26;;;;;;;9.93;2.58;;;4.00;79.40;;;;;;5049372;28;20064;-60
2021/04/26 01:00:52;;;;;;;11.13;2.47;;;4.00;79.90;;;;;;5047855;28;20105;-60
2021/04/26 01:03:18;;;;;;;12.25;2.45;;;4.00;80.30;;;;;;5049751;28;20395;-60
2021/04/26 01:05:43;;;;;;;4.80;2.70;;;3.90;80.20;;;;;;5048048;28;20053;-60
2021/04/26 01:08:09;;;;;;;14.20;2.80;;;3.90;80.30;;;;;;5049725;28;20032;-60
2021/04/26 01:10:35;;;;;;;10.77;2.20;;;3.70;80.80;;;;;;5048450;28;20029;-60
2021/04/26 01:13:38;;;;;;;9.18;2.67;;;3.70;80.90;;;;;;5049348;28;20024;-60
2021/04/26 01:16:05;;;;;;;15.02;2.70;;;3.60;81.10;;;;;;5048341;28;20071;-60
2021/04/26 01:18:50;;;;;;;8.40;2.60;;;3.60;81.10;;;;;;5046383;28;20033;-60
2021/04/26 01:21:45;;;;;;;12.60;2.53;;;3.50;81.30;;;;;;5049697;28;20108;-60
2021/04/26 01:24:29;;;;;;;12.63;2.55;;;3.40;81.60;;;;;;5047332;28;20029;-60
2021/04/26 01:27:15;;;;;;;10.02;2.72;;;3.40;81.90;;;;;;5047151;28;20068;-60
2021/04/26 01:29:51;;;;;;;14.52;3.50;;;3.30;82.10;;;;;;5046509;28;20040;-60
2021/04/26 01:32:38;;;;;;;13.63;2.92;;;3.40;81.80;;;;;;5048167;28;20100;-60
2021/04/26 01:35:04;;;;;;;13.80;2.83;;;3.40;81.70;;;;;;5048766;28;20472;-60
2021/04/26 01:37:31;;;;;;;14.13;2.72;;;3.50;82.10;;;;;;5047940;28;20040;-60
2021/04/26 01:39:57;;;;;;;8.02;2.65;;;3.50;81.90;;;;;;5047211;28;20163;-60
2021/04/26 01:42:23;;;;;;;11.45;2.83;;;3.50;81.60;;;;;;5047333;28;20115;-60
2021/04/26 01:44:48;;;;;;;10.18;2.72;;;3.50;81.90;;;;;;5047169;28;20310;-60
2021/04/26 01:47:14;;;;;;;9.45;2.67;;;3.50;81.60;;;;;;5047050;28;20483;-60
2021/04/26 01:49:40;;;;;;;9.07;2.67;;;3.60;81.70;;;;;;5046677;28;20091;-60
2021/04/26 01:52:10;;;;;;;9.27;2.95;;;3.50;82.00;;;;;;5047882;28;20452;-60
2021/04/26 01:54:35;;;;;;;9.30;2.83;;;3.50;81.60;;;;;;5048133;28;20040;-60
2021/04/26 01:57:01;;;;;;;6.80;2.85;;;3.50;81.90;;;;;;5048679;28;20029;-60
2021/04/26 01:59:27;;;;;;;12.20;2.88;;;3.50;81.70;;;;;;5047470;28;20424;-60
2021/04/26 02:01:56;;;;;;;7.32;3.22;;;3.50;81.80;;;;;;5046883;28;20443;-60
2021/04/26 02:04:21;;;;;;;10.90;2.92;;;3.50;81.70;;;;;;5030085;28;20108;-60
2021/04/26 02:06:48;;;;;;;8.32;2.70;;;3.50;81.50;;;;;;5047411;28;20409;-60
2021/04/26 02:09:14;;;;;;;6.22;2.92;;;3.50;81.80;;;;;;5048805;28;20017;-60
2021/04/26 02:11:40;;;;;;;12.93;2.80;;;3.40;81.80;;;;;;5046561;28;20025;-60
2021/04/26 02:14:06;;;;;;;9.20;2.70;;;3.40;82.20;;;;;;5048867;28;20375;-60
2021/04/26 02:16:31;;;;;;;9.27;2.45;;;3.40;82.30;;;;;;5045067;28;20028;-60
2021/04/26 02:18:57;;;;;;;6.95;2.42;;;3.40;82.10;;;;;;5046653;28;20032;-60
2021/04/26 02:21:22;;;;;;;6.85;2.72;;;3.40;82.40;;;;;;5048315;28;20017;-60
2021/04/26 02:23:48;;;;;;;11.88;2.35;;;3.50;81.70;;;;;;5046648;28;20049;-60
2021/04/26 02:26:14;;;;;;;12.50;3.03;;;3.40;82.00;;;;;;5047264;28;20082;-60
2021/04/26 02:28:39;;;;;;;7.28;2.40;;;3.40;82.20;;;;;;5047877;28;20017;-60
2021/04/26 02:31:05;;;;;;;11.85;2.55;;;3.50;82.00;;;;;;5048528;28;20096;-60
2021/04/26 02:33:37;;;;;;;8.10;2.58;;;3.40;82.00;;;;;;5030398;28;20013;-59
2021/04/26 02:36:12;;;;;;;12.52;2.80;;;3.30;82.20;;;;;;5034438;28;20028;-60
2021/04/26 02:38:50;;;;;;;10.35;2.78;;;3.30;82.40;;;;;;5034529;28;20140;-59
2021/04/26 02:41:17;;;;;;;9.30;2.88;;;3.20;82.30;;;;;;5050848;28;20033;-60
2021/04/26 02:43:48;;;;;;;4.70;2.33;;;3.20;82.50;;;;;;5051306;28;20021;-59
2021/04/26 02:46:14;;;;;;;6.53;3.17;;;3.10;82.80;;;;;;5049308;28;20033;-60
2021/04/26 02:48:42;;;;;;;9.40;2.90;;;3.10;82.60;;;;;;5032511;28;20024;-60
2021/04/26 02:51:08;;;;;;;7.20;2.60;;;3.10;82.60;;;;;;5051287;28;20049;-60
2021/04/26 02:53:34;;;;;;;6.80;2.70;;;3.10;82.90;;;;;;5050825;28;20055;-60
2021/04/26 02:56:10;;;;;;;9.00;2.95;;;3.10;82.80;;;;;;5033946;28;20025;-60
2021/04/26 02:58:36;;;;;;;5.40;2.67;;;3.20;82.70;;;;;;5049968;28;20029;-60
2021/04/26 03:01:04;;;;;;;11.68;3.33;;;3.20;82.60;;;;;;5050701;28;20533;-60
2021/04/26 03:03:31;;;;;;;7.78;2.92;;;3.20;82.70;;;;;;5049890;28;20498;-60
2021/04/26 03:05:56;;;;;;;8.98;3.05;;;3.20;82.90;;;;;;5033396;28;20052;-60
2021/04/26 03:08:22;;;;;;;9.27;2.63;;;3.20;82.80;;;;;;5051673;28;20021;-60
2021/04/26 03:10:48;;;;;;;11.90;2.80;;;3.20;83.00;;;;;;5049623;28;20084;-60
2021/04/26 03:13:14;;;;;;;10.32;2.72;;;3.20;83.00;;;;;;5051713;28;20104;-60
2021/04/26 03:15:39;;;;;;;10.68;3.28;;;3.20;82.90;;;;;;5032763;28;20045;-59
2021/04/26 03:18:05;;;;;;;9.32;3.15;;;3.10;82.90;;;;;;5047699;28;20083;-60
2021/04/26 03:20:31;;;;;;;9.75;2.63;;;3.10;82.90;;;;;;5033383;28;20025;-60
2021/04/26 03:22:57;;;;;;;8.32;2.80;;;3.10;83.10;;;;;;5049767;28;20040;-60
2021/04/26 03:25:23;;;;;;;7.25;3.30;;;3.10;82.90;;;;;;5032700;28;20025;-60
2021/04/26 03:27:51;;;;;;;6.30;2.90;;;3.00;83.40;;;;;;5050929;28;20021;-60
2021/04/26 03:30:17;;;;;;;10.65;2.83;;;3.00;83.20;;;;;;5051218;28;20020;-60
2021/04/26 03:32:43;;;;;;;10.93;2.97;;;3.00;83.50;;;;;;5049032;28;20028;-60
2021/04/26 03:35:11;;;;;;;9.10;2.83;;;2.90;83.70;;;;;;5050022;28;20131;-60
2021/04/26 03:37:38;;;;;;;7.80;2.88;;;2.90;83.70;;;;;;5049237;28;20029;-60
2021/04/26 03:40:04;;;;;;;6.90;2.25;;;2.90;83.90;;;;;;5033182;28;20078;-60
2021/04/26 03:42:29;;;;;;;8.43;3.03;;;2.90;84.00;;;;;;5049421;28;20037;-60
2021/04/26 03:44:55;;;;;;;7.55;3.00;;;2.90;84.00;;;;;;5050262;28;20079;-60
2021/04/26 03:47:21;;;;;;;13.13;3.15;;;2.90;84.00;;;;;;5047503;28;20027;-60
2021/04/26 03:49:46;;;;;;;14.55;3.22;;;2.90;83.80;;;;;;5049224;28;20158;-60
2021/04/26 03:52:12;;;;;;;11.93;2.97;;;2.80;84.00;;;;;;5050826;28;20028;-60
2021/04/26 03:54:37;;;;;;;8.95;3.45;;;2.70;84.30;;;;;;5049454;28;20245;-59
2021/04/26 03:57:03;;;;;;;7.70;3.13;;;2.70;84.50;;;;;;5051117;28;20099;-60
2021/04/26 03:59:29;;;;;;;7.45;2.80;;;2.60;84.40;;;;;;5049184;28;20033;-60
2021/04/26 04:01:54;;;;;;;8.63;2.85;;;2.60;84.40;;;;;;5049929;28;20028;-60
2021/04/26 04:04:21;;;;;;;11.00;3.83;;;2.50;85.00;;;;;;5049982;28;20029;-59
2021/04/26 04:06:46;;;;;;;9.07;3.10;;;2.40;85.00;;;;;;5049978;28;20391;-60
2021/04/26 04:09:14;;;;;;;6.88;3.08;;;2.40;85.10;;;;;;5050135;28;20021;-59
2021/04/26 04:11:39;;;;;;;7.88;2.67;;;2.30;85.30;;;;;;5049728;28;20434;-59
2021/04/26 04:14:05;;;;;;;10.80;3.17;;;2.30;85.50;;;;;;5049096;28;20021;-61
2021/04/26 04:16:31;;;;;;;12.30;3.28;;;2.30;85.90;;;;;;5047741;28;20039;-61
2021/04/26 04:18:57;;;;;;;10.77;3.97;;;2.30;86.00;;;;;;5049847;28;20029;-62
2021/04/26 04:21:22;;;;;;;8.95;2.85;;;2.30;85.90;;;;;;5049032;28;20100;-61
2021/04/26 04:23:48;;;;;;;11.18;3.28;;;2.20;86.00;;;;;;5048079;28;20047;-61
2021/04/26 04:26:14;;;;;;;7.00;2.80;;;2.20;85.90;;;;;;5032603;28;20037;-61
2021/04/26 04:28:39;;;;;;;10.80;3.28;;;2.30;86.00;;;;;;5031540;28;20032;-61
2021/04/26 04:31:05;;;;;;;7.38;2.88;;;2.30;85.60;;;;;;5049313;28;20031;-61
2021/04/26 04:33:31;;;;;;;6.80;3.40;;;2.30;85.70;;;;;;5048271;28;20025;-61
2021/04/26 04:35:57;;;;;;;7.03;3.17;;;2.30;85.70;;;;;;5047479;28;20021;-61
2021/04/26 04:38:23;;;;;;;9.55;3.60;;;2.30;85.70;;;;;;5047822;28;20032;-61
2021/04/26 04:40:49;;;;;;;11.35;3.28;;;2.40;85.30;;;;;;5048450;28;20070;-61
2021/04/26 04:43:14;;;;;;;13.48;3.28;;;2.40;85.40;;;;;;5049418;28;20028;-59
2021/04/26 04:45:40;;;;;;;6.70;3.08;;;2.70;84.60;;;;;;5047178;28;20075;-61
2021/04/26 04:48:06;;;;;;;14.10;3.55;;;2.80;83.90;;;;;;5046352;28;20021;-61
2021/04/26 04:50:31;;;;;;;10.00;3.08;;;3.00;83.10;;;;;;5046833;28;20031;-61
2021/04/26 04:52:57;;;;;;;13.93;3.13;;;3.20;82.30;;;;;;5047648;28;20024;-61
2021/04/26 04:55:23;;;;;;;11.32;3.03;;;3.40;81.50;;;;;;5047657;28;20025;-61
2021/04/26 04:57:48;;;;;;;18.20;2.95;;;3.60;80.90;;;;;;5046884;28;20021;-61
2021/04/26 05:00:15;;;;;;;10.35;3.75;;;3.70;80.50;;;;;;5030309;28;20020;-61
2021/04/26 05:02:40;;;;;;;13.25;4.03;;;3.90;80.40;;;;;;5046133;28;20025;-61
2021/04/26 05:05:06;;;;;;;9.27;2.60;;;4.10;79.50;;;;;;5046594;28;20421;-61
2021/04/26 05:07:32;;;;;;;10.50;2.72;;;4.50;78.20;;;;;;5047918;28;20020;-59
2021/04/26 05:09:57;;;;;;;5.68;2.55;;;4.60;77.30;;;;;;5047415;28;20017;-60
2021/04/26 05:12:23;;;;;;;7.68;2.60;;;5.00;76.40;;;;;;5047864;28;20016;-60
2021/04/26 05:14:49;;;;;;;10.32;2.75;;;5.60;73.70;;;;;;5047045;28;20021;-60
2021/04/26 05:17:16;;;;;;;6.38;2.53;;;5.40;74.10;;;;;;5027734;28;20025;-60
2021/04/26 05:19:42;;;;;;;7.60;2.67;;;5.50;74.00;;;;;;5045907;28;20333;-60
2021/04/26 05:22:07;;;;;;;10.10;3.22;;;5.80;72.70;;;;;;5046436;28;20089;-60
2021/04/26 05:24:33;;;;;;;11.70;2.28;;;7.00;70.10;;;;;;5046877;28;20039;-60
2021/04/26 05:26:59;;;;;;;10.25;2.70;;;6.30;70.40;;;;;;5045927;28;20597;-60
2021/04/26 05:29:24;;;;;;;7.65;2.58;;;6.50;70.30;;;;;;5047245;28;20107;-60
2021/04/26 05:31:50;;;;;;;6.03;2.40;;;6.00;71.80;;;;;;5046289;28;20518;-61
2021/04/26 05:34:15;;;;;;;7.13;2.60;;;6.50;70.80;;;;;;5048755;28;20103;-61
2021/04/26 05:36:41;;;;;;;4.60;2.08;;;6.60;69.00;;;;;;5046602;28;20483;-60
2021/04/26 05:39:07;;;;;;;4.45;2.20;;;7.20;68.30;;;;;;5047152;28;20029;-61
2021/04/26 05:41:32;;;;;;;12.48;2.70;;;7.20;67.90;;;;;;5048405;28;20063;-60
2021/04/26 05:43:58;;;;;;;8.50;2.28;;;7.10;68.30;;;;;;5046099;28;20078;-60
2021/04/26 05:46:24;;;;;;;190.93;74.88;;;7.40;67.60;;;;;;5066401;28;20021;-65
2021/04/26 05:48:50;;;;;;;10.75;4.18;;;7.70;65.90;;;;;;5049529;28;20494;-60
2021/04/26 05:51:16;;;;;;;9.07;2.90;;;7.20;68.00;;;;;;5046367;28;20025;-59
2021/04/26 05:53:41;;;;;;;10.05;2.28;;;8.20;65.30;;;;;;5045222;28;20022;-61
2021/04/26 05:56:07;;;;;;;14.73;2.75;;;8.40;64.90;;;;;;5048700;28;20025;-61
2021/04/26 05:58:33;;;;;;;4.90;2.13;;;8.00;66.30;;;;;;5048349;28;20110;-60
2021/04/26 06:00:59;;;;;;;6.85;2.20;;;7.30;67.70;;;;;;5047809;28;20029;-60
2021/04/26 06:03:24;;;;;;;10.73;2.25;;;7.30;70.40;;;;;;5053028;28;20464;-60
2021/04/26 06:05:50;;;;;;;6.53;2.00;;;7.30;68.50;;;;;;5057704;28;20190;-59
2021/04/26 06:08:16;;;;;;;8.73;1.90;;;7.40;67.70;;;;;;5047517;28;20040;-59
2021/04/26 06:10:41;;;;;;;7.82;2.10;;;7.90;68.10;;;;;;5050001;28;20021;-61
2021/04/26 06:13:07;;;;;;;9.75;2.00;;;8.30;67.70;;;;;;5051903;28;20048;-60
2021/04/26 06:15:32;;;;;;;6.22;2.25;;;10.40;60.50;;;;;;5049702;28;20108;-60
2021/04/26 06:18:18;;;;;;;9.30;2.55;;;10.50;58.50;;;;;;5048533;28;20017;-60
2021/04/26 06:20:45;;;;;;;8.00;2.10;;;10.70;57.90;;;;;;5050477;28;20126;-59
2021/04/26 06:23:11;;;;;;;10.95;2.38;;;10.80;58.20;;;;;;5050146;28;20395;-60
2021/04/26 06:25:37;;;;;;;6.55;1.95;;;10.30;58.10;;;;;;5050445;28;20021;-60
2021/04/26 06:28:04;;;;;;;7.72;2.20;;;10.40;58.40;;;;;;5051958;28;20049;-60
2021/04/26 06:30:29;;;;;;;9.45;2.55;;;11.20;59.50;;;;;;5050609;28;20099;-60
2021/04/26 06:32:55;;;;;;;10.55;2.42;;;11.00;57.60;;;;;;5049871;28;20586;-60
2021/04/26 06:35:21;;;;;;;15.43;2.22;;;10.10;59.90;;;;;;5051109;28;20569;-61
2021/04/26 06:37:46;;;;;;;7.03;2.20;;;11.00;57.60;;;;;;5050654;28;20033;-62
2021/04/26 06:40:13;;;;;;;8.13;2.20;;;12.00;54.70;;;;;;5050720;28;20033;-61
2021/04/26 06:42:38;;;;;;;6.13;2.00;;;11.00;56.40;;;;;;5049138;28;20033;-63
2021/04/26 06:45:05;;;;;;;8.48;2.53;;;11.90;54.80;;;;;;5049789;28;20028;-62
2021/04/26 06:47:30;;;;;;;5.47;2.08;;;11.10;55.90;;;;;;5047465;28;20041;-62
2021/04/26 06:49:57;;;;;;;6.60;1.70;;;10.20;57.50;;;;;;5049350;28;20017;-62
2021/04/26 06:52:22;;;;;;;10.63;2.10;;;9.80;58.70;;;;;;5049497;28;20025;-62
2021/04/26 06:54:48;;;;;;;6.95;1.83;;;10.10;55.90;;;;;;5050608;28;20029;-62
2021/04/26 06:57:14;;;;;;;8.15;2.28;;;9.50;59.00;;;;;;5051248;28;20017;-62
2021/04/26 06:59:39;;;;;;;8.68;1.80;;;10.20;57.80;;;;;;5048484;28;20020;-62
2021/04/26 07:02:05;;;;;;;7.13;2.38;;;11.60;53.50;;;;;;5050992;28;20017;-62
2021/04/26 07:04:30;;;;;;;6.38;1.98;;;12.10;51.60;;;;;;5050582;28;20108;-65
2021/04/26 07:06:56;;;;;;;9.18;2.35;;;10.60;54.90;;;;;;5049705;28;20021;-61
2021/04/26 07:09:22;;;;;;;5.32;1.95;;;10.50;54.70;;;;;;5050233;28;20017;-63
2021/04/26 07:11:49;;;;;;;6.65;2.10;;;11.10;54.80;;;;;;5032481;28;20021;-62
2021/04/26 07:14:14;;;;;;;8.27;2.20;;;10.80;53.70;;;;;;5050074;28;20139;-60
2021/04/26 07:16:41;;;;;;;212.90;75.07;;;11.30;52.80;;;;;;5047631;28;20124;-64
2021/04/26 07:19:06;;;;;;;8.20;4.20;;;11.00;52.20;;;;;;5048515;28;20379;-60
2021/04/26 07:21:32;;;;;;;8.18;2.25;;;9.50;56.30;;;;;;5048785;28;20032;-60
2021/04/26 07:23:57;;;;;;;11.45;2.05;;;8.80;59.40;;;;;;5024296;28;20391;-59
2021/04/26 07:26:23;;;;;;;6.85;1.83;;;9.50;58.30;;;;;;5050249;28;20025;-59
2021/04/26 07:28:48;;;;;;;5.93;1.88;;;9.10;57.20;;;;;;5049881;28;20109;-60
2021/04/26 07:31:14;;;;;;;5.18;1.85;;;9.40;57.10;;;;;;5050943;28;20021;-60
2021/04/26 07:33:40;;;;;;;6.22;2.10;;;9.30;57.50;;;;;;5048894;28;20032;-60
2021/04/26 07:36:06;;;;;;;5.78;1.77;;;9.70;57.00;;;;;;5048987;28;20120;-61
2021/04/26 07:38:31;;;;;;;9.95;1.70;;;11.30;52.40;;;;;;5050032;28;20108;-60
2021/04/26 07:40:57;;;;;;;7.32;2.00;;;11.70;49.30;;;;;;5049707;28;20028;-60
2021/04/26 07:43:22;;;;;;;6.95;2.42;;;12.20;49.50;;;;;;5050550;28;20029;-59
2021/04/26 07:45:48;;;;;;;7.50;1.90;;;13.90;45.60;;;;;;5049882;28;20021;-60
2021/04/26 07:48:14;;;;;;;5.65;1.90;;;12.40;45.70;;;;;;5048480;28;20024;-60
2021/04/26 07:50:41;;;;;;;6.57;2.05;;;12.10;49.30;;;;;;5049016;28;20025;-60
2021/04/26 07:53:07;;;;;;;4.85;1.60;;;13.50;45.70;;;;;;5049677;28;20017;-60
2021/04/26 07:55:33;;;;;;;3.58;1.60;;;12.50;46.10;;;;;;5048606;28;20033;-60
2021/04/26 07:57:59;;;;;;;6.32;1.90;;;12.30;45.50;;;;;;5049596;28;20036;-61
2021/04/26 08:00:24;;;;;;;4.95;1.95;;;12.60;46.70;;;;;;5048096;28;20031;-61
2021/04/26 08:02:50;;;;;;;4.30;1.60;;;11.80;45.10;;;;;;5049580;28;20029;-60
2021/04/26 08:05:16;;;;;;;5.85;1.85;;;12.70;43.60;;;;;;5050030;28;20045;-59
2021/04/26 08:07:42;;;;;;;5.88;1.83;;;13.00;45.90;;;;;;5046848;28;20017;-60
2021/04/26 08:10:08;;;;;;;7.63;2.00;;;13.60;44.10;;;;;;5049809;28;20372;-61
2021/04/26 08:12:33;;;;;;;4.05;1.67;;;12.70;45.50;;;;;;5047673;28;20060;-61
2021/04/26 08:14:59;;;;;;;5.53;2.03;;;12.50;48.30;;;;;;5049224;28;20032;-60
2021/04/26 08:17:24;;;;;;;7.20;1.90;;;12.00;47.60;;;;;;5047768;28;20069;-60
2021/04/26 08:19:50;;;;;;;2.60;1.48;;;12.10;46.90;;;;;;5049522;28;20385;-60
2021/04/26 08:22:16;;;;;;;4.43;1.73;;;12.50;46.90;;;;;;5049564;28;20025;-60
2021/04/26 08:24:41;;;;;;;4.35;1.58;;;12.30;44.80;;;;;;5048772;28;20040;-60
2021/04/26 08:27:07;;;;;;;5.18;1.70;;;11.90;46.50;;;;;;5049032;28;20013;-61
2021/04/26 08:29:32;;;;;;;2.55;1.35;;;11.70;45.70;;;;;;5048419;28;20021;-60
2021/04/26 08:31:58;;;;;;;323.58;158.68;;;11.60;44.00;;;;;;5048344;28;20357;-63
2021/04/26 08:34:24;;;;;;;74.72;36.50;;;11.70;45.70;;;;;;5047738;28;20476;-58
2021/04/26 08:36:49;;;;;;;5.65;2.53;;;12.30;44.00;;;;;;5046952;28;20021;-59
2021/04/26 08:39:16;;;;;;;4.13;1.90;;;11.80;44.90;;;;;;5050012;28;20096;-59
2021/04/26 08:41:42;;;;;;;4.07;1.60;;;12.30;43.40;;;;;;5048424;28;20055;-60
2021/04/26 08:44:08;;;;;;;3.95;1.50;;;11.60;45.10;;;;;;5049356;28;20036;-60
2021/04/26 08:46:34;;;;;;;4.85;2.05;;;11.90;42.40;;;;;;5029490;28;20024;-60
2021/04/26 08:49:00;;;;;;;3.15;1.73;;;11.50;43.70;;;;;;5031639;28;20086;-60
2021/04/26 08:51:25;;;;;;;3.80;1.70;;;11.20;46.10;;;;;;5046603;28;20029;-61
2021/04/26 08:53:51;;;;;;;7.03;1.83;;;12.00;43.60;;;;;;5047238;28;20068;-60
2021/04/26 08:56:17;;;;;;;2.90;1.75;;;12.30;43.20;;;;;;5049464;28;20289;-61
2021/04/26 08:58:42;;;;;;;8.90;3.05;;;11.40;44.20;;;;;;5048243;28;20040;-60
2021/04/26 09:01:08;;;;;;;5.97;2.38;;;11.30;45.20;;;;;;5049438;28;20051;-61
2021/04/26 09:03:35;;;;;;;4.85;1.98;;;12.00;44.00;;;;;;5049069;28;20044;-62
2021/04/26 09:06:01;;;;;;;5.72;2.50;;;11.60;43.20;;;;;;5048963;28;20526;-62
2021/04/26 09:08:28;;;;;;;7.85;1.98;;;12.20;43.00;;;;;;5049058;28;20468;-61
2021/04/26 09:11:02;;;;;;;6.25;2.17;;;12.50;43.30;;;;;;5047230;28;20104;-61
2021/04/26 09:13:34;;;;;;;3.65;2.15;;;12.80;42.30;;;;;;5046402;28;20098;-61
2021/04/26 09:16:18;;;;;;;3.05;2.20;;;12.20;42.60;;;;;;5048759;28;20028;-61
2021/04/26 09:18:49;;;;;;;4.53;2.60;;;12.60;41.90;;;;;;5047766;28;20032;-61
2021/04/26 09:21:25;;;;;;;4.50;2.13;;;12.00;43.00;;;;;;5048569;28;20032;-62
2021/04/26 09:24:25;;;;;;;4.80;2.13;;;11.70;43.00;;;;;;5047626;28;20044;-62
2021/04/26 09:26:53;;;;;;;5.72;2.38;;;12.00;43.50;;;;;;5047478;28;20033;-62
2021/04/26 09:29:28;;;;;;;6.85;2.70;;;11.60;43.80;;;;;;5030137;28;20021;-61
2021/04/26 09:32:16;;;;;;;9.27;3.08;;;12.20;42.20;;;;;;5029762;28;20441;-62
2021/04/26 09:34:46;;;;;;;6.30;2.80;;;11.40;43.40;;;;;;5045756;28;20029;-62
2021/04/26 09:37:13;;;;;;;5.30;2.28;;;11.10;44.70;;;;;;5048728;28;20114;-62
2021/04/26 09:40:00;;;;;;;7.07;2.55;;;12.30;43.90;;;;;;5048055;28;20400;-61
2021/04/26 09:42:42;;;;;;;6.32;2.40;;;12.00;43.40;;;;;;5047386;28;20028;-63
2021/04/26 09:45:27;;;;;;;5.47;2.63;;;11.70;43.40;;;;;;5048514;28;20068;-62
2021/04/26 09:48:12;;;;;;;5.18;2.67;;;11.00;44.30;;;;;;5049512;28;20044;-60
2021/04/26 09:50:51;;;;;;;150.75;68.30;;;11.30;44.80;;;;;;5050835;28;20687;-67
2021/04/26 09:53:17;;;;;;;10.40;5.05;;;11.90;44.30;;;;;;5052553;28;20025;-60
2021/04/26 09:55:42;;;;;;;4.60;2.55;;;12.00;44.20;;;;;;5050521;28;20025;-61
2021/04/26 09:58:09;;;;;;;11.80;3.83;;;12.20;43.30;;;;;;5051018;28;20476;-60
2021/04/26 10:00:35;;;;;;;12.40;2.58;;;11.50;44.50;;;;;;5033819;28;20040;-62
2021/04/26 10:03:01;;;;;;;9.30;3.08;;;11.80;45.70;;;;;;5052914;28;20036;-61
2021/04/26 10:05:26;;;;;;;11.30;2.85;;;11.70;44.70;;;;;;5050518;28;20037;-60
2021/04/26 10:07:52;;;;;;;8.13;2.83;;;11.50;44.90;;;;;;5051011;28;20474;-60
2021/04/26 10:10:17;;;;;;;8.48;2.58;;;11.20;45.40;;;;;;5049617;28;20056;-61
2021/04/26 10:12:43;;;;;;;7.68;3.05;;;11.00;46.70;;;;;;5047847;28;20021;-64
2021/04/26 10:15:10;;;;;;;8.48;2.50;;;10.90;46.50;;;;;;5050009;28;20033;-59
2021/04/26 10:17:36;;;;;;;11.27;3.45;;;11.00;46.60;;;;;;5046688;28;20459;-60
2021/04/26 10:20:02;;;;;;;8.30;2.67;;;11.40;45.60;;;;;;5049266;28;20048;-60
2021/04/26 10:22:38;;;;;;;7.18;2.92;;;10.80;46.90;;;;;;5052076;28;20498;-59
2021/04/26 10:25:05;;;;;;;9.52;2.90;;;11.20;46.60;;;;;;5050856;28;20029;-60
2021/04/26 10:27:32;;;;;;;10.13;3.00;;;11.50;45.80;;;;;;5051727;28;20104;-59
2021/04/26 10:30:11;;;;;;;7.40;2.63;;;11.30;46.40;;;;;;5049894;28;20479;-59
2021/04/26 10:32:57;;;;;;;6.10;2.60;;;11.50;46.00;;;;;;5049084;28;20025;-61
2021/04/26 10:35:22;;;;;;;11.73;2.80;;;11.90;45.20;;;;;;5049157;28;20029;-62
2021/04/26 10:37:48;;;;;;;6.22;2.70;;;12.20;44.80;;;;;;5051441;28;20083;-62
2021/04/26 10:40:16;;;;;;;7.60;2.95;;;12.00;45.00;;;;;;5051898;28;20017;-62
2021/04/26 10:42:46;;;;;;;7.35;3.03;;;11.50;45.40;;;;;;5050329;28;20052;-63
2021/04/26 10:45:12;;;;;;;3.92;2.72;;;11.60;45.70;;;;;;5050549;28;20095;-62
2021/04/26 10:47:38;;;;;;;7.03;2.95;;;12.30;45.80;;;;;;5048578;28;20113;-64
2021/04/26 10:50:04;;;;;;;6.93;2.78;;;12.60;44.40;;;;;;5050724;28;20026;-61
2021/04/26 10:52:29;;;;;;;6.35;2.58;;;12.20;43.30;;;;;;5051212;28;20040;-62
2021/04/26 10:55:04;;;;;;;5.40;2.58;;;11.80;42.80;;;;;;5050181;28;20020;-61
2021/04/26 10:57:30;;;;;;;10.02;2.53;;;11.70;43.80;;;;;;5049341;28;20036;-63
2021/04/26 10:59:56;;;;;;;9.35;2.92;;;12.00;43.90;;;;;;5047645;28;20104;-64
2021/04/26 11:02:31;;;;;;;9.48;2.47;;;11.90;43.30;;;;;;5051419;28;20104;-64
2021/04/26 11:05:45;;;;;;;8.68;3.33;;;11.80;43.80;;;;;;5048918;28;20127;-62
2021/04/26 11:11:25;;;;;;;13.88;3.00;;;11.60;44.20;;;;;;5028966;28;20114;-63
2021/04/26 11:13:58;;;;;;;7.47;2.65;;;11.70;44.40;;;;;;5048985;28;20043;-60
2021/04/26 11:16:32;;;;;;;75.60;27.98;;;11.20;44.80;;;;;;5048838;28;20095;-66
2021/04/26 11:18:58;;;;;;;16.08;7.40;;;11.60;44.20;;;;;;5053921;28;20017;-61
2021/04/26 11:21:42;;;;;;;8.18;3.63;;;11.60;43.90;;;;;;5050472;28;20025;-60
2021/04/26 11:24:08;;;;;;;8.70;3.22;;;11.50;43.70;;;;;;5049092;28;20490;-60
2021/04/26 11:26:33;;;;;;;8.60;3.40;;;11.50;44.70;;;;;;5050358;28;20087;-61
2021/04/26 11:29:04;;;;;;;5.72;2.70;;;11.50;43.90;;;;;;5032261;28;20033;-61
2021/04/26 11:31:42;;;;;;;7.70;2.92;;;11.20;45.20;;;;;;5048146;28;20355;-60
2021/04/26 11:34:15;;;;;;;10.60;2.85;;;11.50;45.00;;;;;;5049292;28;20029;-60
2021/04/26 11:37:00;;;;;;;12.45;2.92;;;11.60;43.70;;;;;;5050157;28;20091;-59
2021/04/26 11:39:37;;;;;;;4.63;3.10;;;11.60;44.30;;;;;;5050202;28;20040;-60
2021/04/26 11:42:03;;;;;;;10.30;2.78;;;11.90;43.70;;;;;;5050650;28;20025;-60
2021/04/26 11:44:32;;;;;;;10.85;4.80;;;11.20;43.30;;;;;;5048921;28;20039;-61
2021/04/26 11:47:06;;;;;;;5.38;2.67;;;11.40;44.10;;;;;;5046720;28;20036;-61
2021/04/26 11:49:35;;;;;;;;;;;11.40;43.80;;;;;;5016450;28;20036;-60
2021/04/26 11:52:02;;;;;;;8.82;3.05;;;11.50;44.50;;;;;;5049480;28;19909;-61
2021/04/26 11:54:28;;;;;;;8.60;3.15;;;11.40;44.00;;;;;;5031963;28;20025;-62
2021/04/26 11:57:18;;;;;;;11.63;3.38;;;11.20;44.30;;;;;;5050268;28;20028;-60
2021/04/26 11:59:49;;;;;;;8.05;3.10;;;11.40;45.30;;;;;;5050566;28;20137;-60
2021/04/26 12:02:29;;;;;;;5.95;2.80;;;11.30;45.60;;;;;;5056335;28;20024;-61
2021/04/26 12:04:57;;;;;;;9.23;3.40;;;11.50;44.90;;;;;;5056779;28;20151;-60
2021/04/26 12:07:22;;;;;;;10.25;3.20;;;11.40;45.90;;;;;;5058135;28;20024;-60
2021/04/26 12:09:55;;;;;;;7.85;3.10;;;11.60;45.40;;;;;;5056286;28;20025;-59
2021/04/26 12:12:22;;;;;;;6.50;2.63;;;11.50;44.00;;;;;;5041054;28;20237;-60
2021/04/26 12:14:55;;;;;;;5.00;2.90;;;11.50;44.70;;;;;;5048647;28;20674;-61
2021/04/26 12:17:24;;;;;;;4.85;2.88;;;11.50;46.30;;;;;;5042983;28;20021;-60
2021/04/26 12:19:50;;;;;;;14.00;3.08;;;11.60;45.90;;;;;;5048784;28;20372;-60
2021/04/26 12:22:16;;;;;;;6.53;3.13;;;11.50;46.50;;;;;;5049405;28;20013;-61
2021/04/26 12:24:42;;;;;;;10.90;3.13;;;11.60;46.50;;;;;;5046626;28;20048;-60
2021/04/26 12:27:13;;;;;;;8.82;3.90;;;11.90;46.10;;;;;;5048898;28;20024;-61
2021/04/26 12:29:38;;;;;;;6.32;3.25;;;11.70;46.10;;;;;;5048958;28;20058;-59
2021/04/26 12:32:31;;;;;;;6.00;3.20;;;12.10;45.20;;;;;;5047552;28;20052;-59
2021/04/26 12:35:19;;;;;;;6.60;3.05;;;11.90;45.60;;;;;;5047199;28;20043;-59
2021/04/26 12:37:47;;;;;;;10.52;3.05;;;11.60;45.50;;;;;;5047692;28;20025;-59
2021/04/26 12:40:31;;;;;;;7.80;2.92;;;11.90;46.00;;;;;;5046996;28;20091;-60
2021/04/26 12:42:57;;;;;;;7.75;2.97;;;12.20;45.90;;;;;;5043398;28;20442;-59
2021/04/26 12:45:25;;;;;;;8.90;3.25;;;12.10;45.00;;;;;;5047474;28;20033;-65
2021/04/26 12:47:58;;;;;;;70.57;26.70;;;12.20;45.20;;;;;;5046224;28;20450;-60
2021/04/26 12:50:31;;;;;;;6.03;3.13;;;12.40;45.00;;;;;;5048014;28;20025;-59
2021/04/26 12:53:10;;;;;;;7.77;2.83;;;12.20;44.00;;;;;;5048745;28;20100;-60
2021/04/26 12:55:52;;;;;;;10.20;3.20;;;11.80;44.60;;;;;;5046594;28;20400;-60